Terminal Aerodrome Forecast
Issued by NWS Brownsville, TX

Home | Current Version | Previous Version | Text Only | Print | Product List | Glossary On
Versions: 1 2 3 4 5 6 7 8 9 10 11 12 13 14 15 16 17 18 19 20 21 22
611
FTUS44 KBRO 201130
TAFMFE
TAF
KMFE 201130Z 2012/2112 15004KT 2SM BR BKN006
      TEMPO 2012/2014 3/4SM BR OVC002
     FM201600 20006KT 5SM BR BKN010
     FM202000 29007KT P6SM BKN050
     FM210100 15006KT P6SM FEW050 BKN250
     FM210500 VRB03KT 4SM BR BKN250
      TEMPO 2107/2111 1/2SM FG VV002=

USA.gov is the U.S. government's official web portal to all federal, state and local government web resources and services.